Time;durP1;ratioP1;P1;durP2;ratioP2;P2;SDS_P1;SDS_P2;PMS_P1;PMS_P2;Temp;Humidity;BMP_temperature;BMP_pressure;BME280_temperature;BME280_humidity;BME280_pressure;Samples;Min_cycle;Max_cycle;Signal;HPM_P1;HPM_P2
2023/03/12 00:02:05;;;;;;;3.88;2.10;;;7.60;99.50;;;;;;4979663;28;20287;-85
2023/03/12 00:04:33;;;;;;;4.63;2.20;;;7.70;99.70;;;;;;4994826;28;20029;-84
2023/03/12 00:06:59;;;;;;;4.15;2.00;;;7.60;99.70;;;;;;4988846;28;20041;-88
2023/03/12 00:09:25;;;;;;;3.90;2.10;;;7.70;99.90;;;;;;4993436;28;20033;-85
2023/03/12 00:11:51;;;;;;;6.33;2.20;;;7.60;99.90;;;;;;4977032;28;20036;-87
2023/03/12 00:14:16;;;;;;;3.80;2.17;;;7.60;99.90;;;;;;4974676;28;20260;-84
2023/03/12 00:16:42;;;;;;;3.40;2.07;;;7.60;99.90;;;;;;4994476;28;20025;-84
2023/03/12 00:19:11;;;;;;;3.28;2.00;;;7.60;99.90;;;;;;4976880;28;20272;-84
2023/03/12 00:21:37;;;;;;;2.83;1.90;;;7.60;99.90;;;;;;5014805;28;20029;-83
2023/03/12 00:24:03;;;;;;;2.95;1.90;;;7.60;99.90;;;;;;4962072;28;20037;-86
2023/03/12 00:26:29;;;;;;;3.20;1.92;;;7.60;99.90;;;;;;4989964;28;20064;-85
2023/03/12 00:28:55;;;;;;;2.93;1.80;;;7.60;99.90;;;;;;4992620;28;20117;-87
2023/03/12 00:31:27;;;;;;;3.10;1.95;;;7.60;99.90;;;;;;4962004;28;20033;-85
2023/03/12 00:33:53;;;;;;;3.20;1.90;;;7.60;99.80;;;;;;5011112;28;20167;-86
2023/03/12 00:36:23;;;;;;;2.80;1.92;;;7.50;99.90;;;;;;4995928;28;20250;-83
2023/03/12 00:38:52;;;;;;;3.27;2.10;;;7.50;99.90;;;;;;4983088;28;20091;-87
2023/03/12 00:41:19;;;;;;;3.58;1.80;;;7.50;99.90;;;;;;4982339;28;20099;-84
2023/03/12 00:43:46;;;;;;;3.60;1.90;;;7.50;99.90;;;;;;4980031;28;20357;-87
2023/03/12 00:46:12;;;;;;;3.78;2.20;;;7.50;99.90;;;;;;4970610;28;20032;-84
2023/03/12 00:48:37;;;;;;;3.60;2.00;;;7.50;99.90;;;;;;5013158;28;20574;-83
2023/03/12 00:51:03;;;;;;;3.42;2.10;;;7.50;99.90;;;;;;4990128;28;20048;-84
2023/03/12 00:53:29;;;;;;;4.40;1.90;;;7.50;99.90;;;;;;4974041;28;20542;-85
2023/03/12 00:55:54;;;;;;;3.35;1.92;;;7.50;99.90;;;;;;4987075;28;21018;-88
2023/03/12 00:58:20;;;;;;;3.37;1.97;;;7.50;99.90;;;;;;5012749;28;20522;-83
2023/03/12 01:00:46;;;;;;;3.25;1.95;;;7.50;99.90;;;;;;4991671;28;20399;-86
2023/03/12 01:03:12;;;;;;;3.40;2.03;;;7.50;99.90;;;;;;4990660;28;20075;-83
2023/03/12 01:05:39;;;;;;;4.35;2.22;;;7.50;99.90;;;;;;4997246;28;20441;-83
2023/03/12 01:08:06;;;;;;;3.45;2.00;;;7.50;99.90;;;;;;4969680;28;20045;-84
2023/03/12 01:10:32;;;;;;;3.60;1.92;;;7.50;99.90;;;;;;4979463;28;20411;-85
2023/03/12 01:12:57;;;;;;;4.97;2.40;;;7.50;99.90;;;;;;4975227;28;20395;-87
2023/03/12 01:15:24;;;;;;;4.25;2.40;;;7.50;99.90;;;;;;5028614;28;20696;-83
2023/03/12 01:17:50;;;;;;;4.25;2.20;;;7.50;99.90;;;;;;4975785;28;20552;-86
2023/03/12 01:20:15;;;;;;;3.83;2.10;;;7.60;99.90;;;;;;4985931;28;20025;-84
2023/03/12 01:22:41;;;;;;;3.53;1.90;;;7.50;99.90;;;;;;4997701;28;20021;-84
2023/03/12 01:25:07;;;;;;;2.80;1.90;;;7.60;99.90;;;;;;4989739;28;20136;-84
2023/03/12 01:27:33;;;;;;;3.27;1.87;;;7.50;99.90;;;;;;4995823;28;20287;-84
2023/03/12 01:29:59;;;;;;;3.67;2.10;;;7.60;99.90;;;;;;4994914;28;20033;-87
2023/03/12 01:32:24;;;;;;;3.60;2.40;;;7.60;99.90;;;;;;4969921;28;20030;-85
2023/03/12 01:34:50;;;;;;;6.15;2.80;;;7.50;99.90;;;;;;4984549;28;20393;-86
2023/03/12 01:37:16;;;;;;;4.10;2.30;;;7.60;99.90;;;;;;5006778;28;20235;-82
2023/03/12 01:39:41;;;;;;;4.63;2.40;;;7.60;99.90;;;;;;4992235;28;20117;-83
2023/03/12 01:42:07;;;;;;;5.13;2.40;;;7.60;99.90;;;;;;4999547;28;20018;-84
2023/03/12 01:44:58;;;;;;;3.15;2.03;;;7.50;99.90;;;;;;4994172;28;20017;-84
2023/03/12 01:47:25;;;;;;;5.80;2.60;;;7.50;99.90;;;;;;4978390;28;20036;-83
2023/03/12 01:49:52;;;;;;;4.13;2.20;;;7.60;99.90;;;;;;5002167;28;20061;-87
2023/03/12 01:52:32;;;;;;;4.40;2.25;;;7.50;99.90;;;;;;4997725;28;20040;-84
2023/03/12 01:55:08;;;;;;;3.95;2.45;;;7.50;99.90;;;;;;5006223;28;20029;-87
2023/03/12 01:57:47;;;;;;;4.07;2.53;;;7.50;99.90;;;;;;4997034;28;20133;-85
2023/03/12 02:00:19;;;;;;;3.53;1.97;;;7.50;99.90;;;;;;4983751;28;20025;-84
2023/03/12 02:02:46;;;;;;;3.88;2.13;;;7.50;99.90;;;;;;4969020;28;20140;-87
2023/03/12 02:05:42;;;;;;;3.72;2.30;;;7.50;99.90;;;;;;5012515;28;20022;-84
2023/03/12 02:08:09;;;;;;;5.57;2.30;;;7.50;99.90;;;;;;4972919;28;20029;-84
2023/03/12 02:10:35;;;;;;;3.42;1.77;;;7.50;99.90;;;;;;4990704;28;20475;-85
2023/03/12 02:13:01;;;;;;;3.00;1.90;;;7.50;99.90;;;;;;4974726;28;20278;-86
2023/03/12 02:15:27;;;;;;;2.97;1.67;;;7.50;99.90;;;;;;4985932;28;20676;-83
2023/03/12 02:17:53;;;;;;;2.77;1.73;;;7.50;99.90;;;;;;4980434;28;20041;-87
2023/03/12 02:20:30;;;;;;;2.40;1.60;;;7.50;99.90;;;;;;4980562;28;20403;-85
2023/03/12 02:23:22;;;;;;;4.43;1.90;;;7.50;99.90;;;;;;5003254;28;20042;-86
2023/03/12 02:25:51;;;;;;;3.55;1.58;;;7.50;99.90;;;;;;5003630;28;20427;-88
2023/03/12 02:28:20;;;;;;;3.03;1.70;;;7.50;99.90;;;;;;4995947;28;20496;-84
2023/03/12 02:30:49;;;;;;;5.30;1.90;;;7.50;99.90;;;;;;4991750;28;20036;-86
2023/03/12 02:33:15;;;;;;;6.97;1.90;;;7.50;99.90;;;;;;4976445;28;20029;-83
2023/03/12 02:35:41;;;;;;;3.55;1.92;;;7.50;99.90;;;;;;4982993;28;20113;-85
2023/03/12 02:38:47;;;;;;;2.63;1.80;;;7.50;99.90;;;;;;4984396;28;20212;-86
2023/03/12 02:41:20;;;;;;;6.15;2.30;;;7.40;99.90;;;;;;4981152;28;20167;-84
2023/03/12 02:44:06;;;;;;;3.80;1.88;;;7.40;99.90;;;;;;4994858;28;20558;-87
2023/03/12 02:46:35;;;;;;;3.10;1.63;;;7.40;99.90;;;;;;5004193;28;20047;-84
2023/03/12 02:49:02;;;;;;;4.43;2.30;;;7.40;99.90;;;;;;4975222;28;20104;-86
2023/03/12 02:51:27;;;;;;;3.50;1.90;;;7.40;99.90;;;;;;5009832;28;20155;-84
2023/03/12 02:53:53;;;;;;;2.93;1.80;;;7.30;99.90;;;;;;4999455;28;20477;-86
2023/03/12 02:56:23;;;;;;;3.30;1.90;;;7.30;99.90;;;;;;4973703;28;20514;-84
2023/03/12 02:58:49;;;;;;;2.92;1.50;;;7.30;99.90;;;;;;4991811;28;20021;-87
2023/03/12 03:01:16;;;;;;;3.13;1.45;;;7.30;99.90;;;;;;4990972;28;20541;-85
2023/03/12 03:03:41;;;;;;;3.65;1.98;;;7.30;99.90;;;;;;5016193;28;20073;-84
2023/03/12 03:06:07;;;;;;;3.70;1.50;;;7.30;99.90;;;;;;4972377;28;20612;-84
2023/03/12 03:08:33;;;;;;;2.67;1.40;;;7.30;99.90;;;;;;4983962;28;20521;-83
2023/03/12 03:11:01;;;;;;;1.98;1.33;;;7.30;99.90;;;;;;5006252;28;20021;-87
2023/03/12 03:13:28;;;;;;;3.72;1.50;;;7.30;99.90;;;;;;5012674;28;20025;-84
2023/03/12 03:15:56;;;;;;;2.40;1.20;;;7.30;99.90;;;;;;5009813;28;20037;-86
2023/03/12 03:18:22;;;;;;;2.63;1.50;;;7.30;99.90;;;;;;4999586;28;20034;-84
2023/03/12 03:20:57;;;;;;;2.45;1.35;;;7.30;99.90;;;;;;4976263;28;20045;-87
2023/03/12 03:23:24;;;;;;;2.45;1.17;;;7.30;99.90;;;;;;5015807;28;20033;-84
2023/03/12 03:25:51;;;;;;;3.25;1.67;;;7.30;99.90;;;;;;4984708;28;20108;-85
2023/03/12 03:28:18;;;;;;;4.83;1.50;;;7.30;99.90;;;;;;4985019;28;20503;-84
2023/03/12 03:30:43;;;;;;;3.47;1.65;;;7.30;99.90;;;;;;5000764;28;20475;-86
2023/03/12 03:33:09;;;;;;;2.28;1.40;;;7.30;99.90;;;;;;5006767;28;20055;-85
2023/03/12 03:35:34;;;;;;;3.80;1.63;;;7.30;99.90;;;;;;4988188;28;20017;-85
2023/03/12 03:38:00;;;;;;;2.33;1.20;;;7.30;99.90;;;;;;4996230;28;20018;-85
2023/03/12 03:40:26;;;;;;;3.80;1.70;;;7.30;99.90;;;;;;4999277;28;20071;-83
2023/03/12 03:42:52;;;;;;;2.40;1.55;;;7.30;99.90;;;;;;4986635;28;20144;-87
2023/03/12 03:45:18;;;;;;;3.93;1.90;;;7.30;99.90;;;;;;4985988;28;20248;-85
2023/03/12 03:47:44;;;;;;;4.90;1.80;;;7.30;99.90;;;;;;4995632;28;20557;-86
2023/03/12 03:50:10;;;;;;;3.45;1.73;;;7.30;99.90;;;;;;4971613;28;20322;-83
2023/03/12 03:52:36;;;;;;;2.50;1.47;;;7.30;99.90;;;;;;4985294;28;20391;-82
2023/03/12 03:55:02;;;;;;;3.05;1.73;;;7.30;99.90;;;;;;4994273;28;20232;-83
2023/03/12 03:57:28;;;;;;;4.70;1.90;;;7.30;99.90;;;;;;4990926;28;20033;-84
2023/03/12 03:59:54;;;;;;;3.10;1.70;;;7.30;99.90;;;;;;5006851;28;20025;-85
2023/03/12 04:02:20;;;;;;;3.00;1.73;;;7.30;99.90;;;;;;4982438;28;20028;-84
2023/03/12 04:04:46;;;;;;;3.03;1.58;;;7.30;99.90;;;;;;4975225;28;20555;-87
2023/03/12 04:07:11;;;;;;;2.63;1.40;;;7.30;99.90;;;;;;4960439;28;20682;-85
2023/03/12 04:09:37;;;;;;;3.53;1.60;;;7.30;99.90;;;;;;4972866;28;20100;-84
2023/03/12 04:12:03;;;;;;;4.33;1.90;;;7.30;99.90;;;;;;4994908;28;20135;-84
2023/03/12 04:14:29;;;;;;;3.00;1.60;;;7.20;99.90;;;;;;4998533;28;20041;-83
2023/03/12 04:16:55;;;;;;;3.72;1.70;;;7.30;99.90;;;;;;4994099;28;20036;-87
2023/03/12 04:19:20;;;;;;;2.03;1.30;;;7.20;99.90;;;;;;4985460;28;20033;-87
2023/03/12 04:21:46;;;;;;;2.55;1.67;;;7.30;99.90;;;;;;4992529;28;20140;-87
2023/03/12 04:24:16;;;;;;;2.53;1.40;;;7.30;99.90;;;;;;4985922;28;20521;-87
2023/03/12 04:26:42;;;;;;;3.08;1.65;;;7.30;99.90;;;;;;5012380;28;20124;-87
2023/03/12 04:29:07;;;;;;;3.70;1.70;;;7.30;99.90;;;;;;4999848;28;20087;-86
2023/03/12 04:31:33;;;;;;;3.92;1.85;;;7.30;99.90;;;;;;5006995;28;20056;-86
2023/03/12 04:33:59;;;;;;;2.77;1.40;;;7.30;99.90;;;;;;4971224;28;20087;-86
2023/03/12 04:36:25;;;;;;;2.30;1.60;;;7.30;99.90;;;;;;4956905;28;20030;-84
2023/03/12 04:38:51;;;;;;;3.90;1.40;;;7.30;99.90;;;;;;4998737;28;20124;-84
2023/03/12 04:41:17;;;;;;;2.97;1.40;;;7.30;99.90;;;;;;4995140;28;20160;-87
2023/03/12 04:43:42;;;;;;;2.30;1.40;;;7.30;99.90;;;;;;5012032;28;20026;-86
2023/03/12 04:46:08;;;;;;;2.22;1.23;;;7.30;99.90;;;;;;4996259;28;20033;-86
2023/03/12 04:48:35;;;;;;;2.60;1.37;;;7.30;99.90;;;;;;5006811;28;20423;-84
2023/03/12 04:51:01;;;;;;;2.97;1.30;;;7.30;99.90;;;;;;5003533;28;20534;-86
2023/03/12 04:53:27;;;;;;;2.28;1.40;;;7.30;99.90;;;;;;4988798;28;20018;-83
2023/03/12 04:55:53;;;;;;;3.00;1.40;;;7.30;99.90;;;;;;4996588;28;20037;-83
2023/03/12 04:58:19;;;;;;;2.40;1.45;;;7.30;99.90;;;;;;4982227;28;20079;-86
2023/03/12 05:00:47;;;;;;;4.22;1.65;;;7.30;99.90;;;;;;5013413;28;20029;-85
2023/03/12 05:03:13;;;;;;;3.60;1.77;;;7.30;99.90;;;;;;4981482;28;20507;-86
2023/03/12 05:05:39;;;;;;;2.23;1.40;;;7.30;99.90;;;;;;4971563;28;20030;-84
2023/03/12 05:08:04;;;;;;;3.15;1.40;;;7.30;99.90;;;;;;5024079;28;20034;-87
2023/03/12 05:10:31;;;;;;;3.37;1.53;;;7.30;99.90;;;;;;4995574;28;20679;-82
2023/03/12 05:12:56;;;;;;;3.07;1.33;;;7.30;99.90;;;;;;4998173;28;20304;-84
2023/03/12 05:15:22;;;;;;;4.22;1.70;;;7.30;99.90;;;;;;4992450;28;20266;-82
2023/03/12 05:17:48;;;;;;;3.50;1.65;;;7.30;99.90;;;;;;4996870;28;20562;-84
2023/03/12 05:20:14;;;;;;;2.70;1.50;;;7.30;99.90;;;;;;4991945;28;20082;-87
2023/03/12 05:22:40;;;;;;;3.28;1.75;;;7.30;99.90;;;;;;4995827;28;20018;-86
2023/03/12 05:25:06;;;;;;;4.17;1.60;;;7.30;99.90;;;;;;4973319;28;20036;-87
2023/03/12 05:27:32;;;;;;;2.47;1.50;;;7.40;99.90;;;;;;4978155;28;20132;-83
2023/03/12 05:29:57;;;;;;;3.22;1.60;;;7.30;99.90;;;;;;4974253;28;20038;-83
2023/03/12 05:32:23;;;;;;;2.63;1.60;;;7.40;99.90;;;;;;4992179;28;20472;-83
2023/03/12 05:34:49;;;;;;;3.85;1.90;;;7.40;99.90;;;;;;4998967;28;20084;-83
2023/03/12 05:37:14;;;;;;;4.37;1.90;;;7.40;99.90;;;;;;4978316;28;20112;-87
2023/03/12 05:39:45;;;;;;;3.00;1.67;;;7.30;99.90;;;;;;4988863;28;20435;-84
2023/03/12 05:42:12;;;;;;;3.45;1.58;;;7.40;99.90;;;;;;5008414;28;20358;-84
2023/03/12 05:44:38;;;;;;;2.87;1.60;;;7.40;99.90;;;;;;4966046;28;20349;-84
2023/03/12 05:47:05;;;;;;;3.00;1.60;;;7.40;99.90;;;;;;5011219;28;20036;-86
2023/03/12 05:49:30;;;;;;;4.50;2.03;;;7.40;99.90;;;;;;4976043;28;20407;-83
2023/03/12 05:51:56;;;;;;;4.50;1.80;;;7.40;99.90;;;;;;4972896;28;20029;-83
2023/03/12 05:54:22;;;;;;;2.90;1.80;;;7.40;99.90;;;;;;4953610;28;20617;-84
2023/03/12 05:56:48;;;;;;;4.60;1.70;;;7.40;99.90;;;;;;4979560;28;20030;-84
2023/03/12 05:59:13;;;;;;;2.93;1.83;;;7.40;99.90;;;;;;5011365;28;20037;-87
2023/03/12 06:01:40;;;;;;;4.10;1.85;;;7.40;99.90;;;;;;4957801;28;20030;-84
2023/03/12 06:04:05;;;;;;;3.15;1.80;;;7.40;99.90;;;;;;4982197;28;20057;-87
2023/03/12 06:06:32;;;;;;;3.23;1.43;;;7.50;99.90;;;;;;4981972;28;20117;-85
2023/03/12 06:08:58;;;;;;;3.30;1.63;;;7.50;99.90;;;;;;4951419;28;20036;-88
2023/03/12 06:11:24;;;;;;;3.30;2.00;;;7.50;99.90;;;;;;4972961;28;20025;-85
2023/03/12 06:13:49;;;;;;;4.72;2.10;;;7.40;99.90;;;;;;4991991;28;20025;-87
2023/03/12 06:16:18;;;;;;;4.87;2.20;;;7.50;99.90;;;;;;4998697;28;20243;-84
2023/03/12 06:18:44;;;;;;;5.45;2.40;;;7.40;99.90;;;;;;5002444;28;20174;-88
2023/03/12 06:21:18;;;;;;;3.90;2.10;;;7.40;99.90;;;;;;4978753;28;21046;-86
2023/03/12 06:23:45;;;;;;;3.90;1.90;;;7.40;99.90;;;;;;5002282;28;20550;-90
2023/03/12 06:26:12;;;;;;;3.65;2.20;;;7.40;99.90;;;;;;4992855;28;20311;-87
2023/03/12 06:28:37;;;;;;;4.72;2.22;;;7.40;99.90;;;;;;4979932;28;20087;-87
2023/03/12 06:31:04;;;;;;;4.37;2.50;;;7.40;99.90;;;;;;4995767;28;20021;-85
2023/03/12 06:33:30;;;;;;;4.45;2.45;;;7.40;99.90;;;;;;4985109;28;20033;-86
2023/03/12 06:35:58;;;;;;;3.88;2.47;;;7.40;99.90;;;;;;4996542;28;20053;-90
2023/03/12 06:38:24;;;;;;;4.35;2.70;;;7.50;99.90;;;;;;4990960;28;20087;-87
2023/03/12 06:41:11;;;;;;;4.07;2.27;;;7.40;99.90;;;;;;4966220;28;20297;-89
2023/03/12 06:43:38;;;;;;;5.03;2.60;;;7.50;99.90;;;;;;4978378;28;20028;-89
2023/03/12 06:46:07;;;;;;;6.57;3.25;;;7.50;99.90;;;;;;4996952;28;20908;-87
2023/03/12 06:48:35;;;;;;;4.63;2.45;;;7.50;99.90;;;;;;4997881;28;20091;-90
2023/03/12 06:51:02;;;;;;;5.03;2.90;;;7.50;99.90;;;;;;5003355;28;20698;-90
2023/03/12 06:53:28;;;;;;;6.63;3.67;;;7.50;99.90;;;;;;5003984;28;20029;-88
2023/03/12 06:55:54;;;;;;;6.43;3.70;;;7.60;99.90;;;;;;4982738;28;20553;-88
2023/03/12 06:58:19;;;;;;;6.63;3.63;;;7.60;99.90;;;;;;4997893;28;20431;-89
2023/03/12 07:00:45;;;;;;;7.80;3.60;;;7.60;99.90;;;;;;4993734;28;20017;-88
2023/03/12 07:03:10;;;;;;;5.43;2.90;;;7.70;99.90;;;;;;5001244;28;20687;-89
2023/03/12 07:05:36;;;;;;;7.27;3.67;;;7.70;99.90;;;;;;4999512;28;20223;-87
2023/03/12 07:08:02;;;;;;;7.13;4.28;;;7.80;99.90;;;;;;5005590;28;20480;-89
2023/03/12 07:10:28;;;;;;;7.37;3.80;;;7.80;99.90;;;;;;4972790;28;21209;-86
2023/03/12 07:12:55;;;;;;;8.82;4.95;;;7.90;99.90;;;;;;4984317;28;20038;-86
2023/03/12 07:15:21;;;;;;;9.70;5.00;;;7.90;99.90;;;;;;4989043;28;20691;-89
2023/03/12 07:17:46;;;;;;;8.38;4.68;;;8.00;99.90;;;;;;5016836;28;20109;-89
2023/03/12 07:20:13;;;;;;;8.07;4.70;;;8.10;99.90;;;;;;4982523;28;20021;-89
2023/03/12 07:22:38;;;;;;;8.80;4.68;;;8.20;99.90;;;;;;4974870;28;21389;-89
2023/03/12 07:25:05;;;;;;;9.43;5.07;;;8.30;99.90;;;;;;4985911;28;20020;-87
2023/03/12 07:27:30;;;;;;;8.40;5.18;;;8.30;99.90;;;;;;4998581;28;20146;-87
2023/03/12 07:29:56;;;;;;;8.00;4.60;;;8.40;99.90;;;;;;5006636;28;20030;-87
2023/03/12 07:32:22;;;;;;;9.30;5.30;;;8.40;99.90;;;;;;4986685;28;20709;-88
2023/03/12 07:34:47;;;;;;;9.43;5.37;;;8.50;99.90;;;;;;4992661;28;20463;-88
2023/03/12 07:37:13;;;;;;;8.32;4.50;;;8.60;99.90;;;;;;4998295;28;20522;-89
2023/03/12 07:39:39;;;;;;;8.30;4.17;;;8.70;99.90;;;;;;4991300;28;20125;-86
2023/03/12 07:42:04;;;;;;;8.23;4.45;;;8.70;99.90;;;;;;4972759;28;20060;-87
2023/03/12 07:44:31;;;;;;;8.67;4.13;;;8.80;99.90;;;;;;4996366;28;20514;-90
2023/03/12 07:46:56;;;;;;;12.10;4.78;;;8.80;99.90;;;;;;4977183;28;20021;-89
2023/03/12 07:49:22;;;;;;;8.43;4.20;;;8.90;99.90;;;;;;4995244;28;20426;-87
2023/03/12 07:51:48;;;;;;;7.77;4.03;;;9.00;99.90;;;;;;4998284;28;20109;-88
2023/03/12 07:54:13;;;;;;;9.73;4.43;;;9.10;99.90;;;;;;4997201;28;20148;-88
2023/03/12 07:56:39;;;;;;;8.77;4.53;;;9.10;99.90;;;;;;4970380;28;21151;-87
2023/03/12 07:59:04;;;;;;;9.07;4.10;;;9.20;99.90;;;;;;4982813;28;20057;-87
2023/03/12 08:01:31;;;;;;;10.95;4.45;;;9.30;99.90;;;;;;4989455;28;20566;-88
2023/03/12 08:04:01;;;;;;;10.65;4.90;;;9.40;99.90;;;;;;4999933;28;20467;-89
2023/03/12 08:06:27;;;;;;;11.77;4.57;;;9.50;99.90;;;;;;4993229;28;20642;-87
2023/03/12 08:08:53;;;;;;;9.13;4.27;;;9.50;99.90;;;;;;5001595;28;20546;-87
2023/03/12 08:11:20;;;;;;;8.13;4.20;;;9.60;99.90;;;;;;4986825;28;20508;-87
2023/03/12 08:13:46;;;;;;;8.23;4.30;;;9.60;99.90;;;;;;4964679;28;20037;-87
2023/03/12 08:16:13;;;;;;;9.57;4.20;;;9.70;99.90;;;;;;5008343;28;20032;-89
2023/03/12 08:18:39;;;;;;;8.65;4.07;;;9.70;99.90;;;;;;4971915;28;20755;-86
2023/03/12 08:21:05;;;;;;;15.98;5.75;;;9.80;99.90;;;;;;4980590;28;20128;-89
2023/03/12 08:23:30;;;;;;;13.90;5.00;;;9.90;99.90;;;;;;4979446;28;20274;-86
2023/03/12 08:25:58;;;;;;;9.18;3.85;;;9.90;99.90;;;;;;4969687;28;20124;-87
2023/03/12 08:28:24;;;;;;;12.32;4.43;;;10.00;99.90;;;;;;4973028;28;20532;-88
2023/03/12 08:30:53;;;;;;;10.60;4.10;;;10.00;99.90;;;;;;4976181;28;20045;-87
2023/03/12 08:33:19;;;;;;;9.30;3.93;;;10.10;99.90;;;;;;4977772;28;20013;-89
2023/03/12 08:35:45;;;;;;;11.85;4.28;;;10.10;99.90;;;;;;4989009;28;20027;-87
2023/03/12 08:38:11;;;;;;;11.23;4.22;;;10.20;99.90;;;;;;4993818;28;20033;-87
2023/03/12 08:40:37;;;;;;;9.32;3.88;;;10.30;99.90;;;;;;4991571;28;20030;-87
2023/03/12 08:43:03;;;;;;;13.93;4.30;;;10.40;99.90;;;;;;4980791;28;20041;-87
2023/03/12 08:45:29;;;;;;;10.82;4.07;;;10.40;99.90;;;;;;4965523;28;20240;-87
2023/03/12 08:47:55;;;;;;;11.48;4.18;;;10.50;99.90;;;;;;4968591;28;20068;-86
2023/03/12 08:50:21;;;;;;;10.43;4.10;;;10.60;99.90;;;;;;4981893;28;20120;-87
2023/03/12 08:52:47;;;;;;;13.90;4.20;;;10.70;99.90;;;;;;4981319;28;20025;-86
2023/03/12 08:55:13;;;;;;;15.32;4.28;;;10.80;99.90;;;;;;4977547;28;20430;-87
2023/03/12 08:57:39;;;;;;;9.90;3.92;;;10.80;99.90;;;;;;4974288;28;20223;-85
2023/03/12 09:00:10;;;;;;;10.77;4.03;;;11.00;99.90;;;;;;4995127;28;20536;-88
2023/03/12 09:02:37;;;;;;;14.35;4.43;;;11.10;99.90;;;;;;4990480;28;20032;-88
2023/03/12 09:05:03;;;;;;;14.45;4.50;;;11.20;99.90;;;;;;4969007;28;20021;-89
2023/03/12 09:07:32;;;;;;;15.18;4.20;;;11.20;99.90;;;;;;5025591;28;20291;-87
2023/03/12 09:09:57;;;;;;;10.30;3.85;;;11.30;99.90;;;;;;4977678;28;20499;-89
2023/03/12 09:12:23;;;;;;;9.97;3.73;;;11.40;99.90;;;;;;5003397;28;20256;-86
2023/03/12 09:14:50;;;;;;;12.18;4.25;;;11.40;99.90;;;;;;4999995;28;20494;-87
2023/03/12 09:17:17;;;;;;;13.95;3.63;;;11.50;99.90;;;;;;4978476;28;20501;-86
2023/03/12 09:19:42;;;;;;;12.43;4.07;;;11.50;99.90;;;;;;5014573;28;20026;-86
2023/03/12 09:22:08;;;;;;;11.48;3.35;;;11.60;99.90;;;;;;4991260;28;20037;-89
2023/03/12 09:24:34;;;;;;;6.57;2.75;;;11.70;99.90;;;;;;4966736;28;21106;-86
2023/03/12 09:27:00;;;;;;;10.60;3.13;;;11.80;99.90;;;;;;4968611;28;20073;-89
2023/03/12 09:29:26;;;;;;;9.48;3.20;;;11.80;99.90;;;;;;5001679;28;21693;-87
2023/03/12 09:31:52;;;;;;;7.83;3.40;;;11.90;99.90;;;;;;4946434;28;25798;-87
2023/03/12 09:34:18;;;;;;;13.23;3.47;;;12.00;99.90;;;;;;4954180;28;20029;-86
2023/03/12 09:36:43;;;;;;;8.80;2.83;;;12.00;99.90;;;;;;5009097;28;21330;-86
2023/03/12 09:39:09;;;;;;;12.30;3.27;;;12.10;99.90;;;;;;4992418;28;20523;-87
2023/03/12 09:41:38;;;;;;;12.07;3.67;;;12.20;99.90;;;;;;4986245;28;20387;-88
2023/03/12 09:44:35;;;;;;;13.02;3.30;;;12.30;99.90;;;;;;4959282;28;20025;-88
2023/03/12 09:47:15;;;;;;;14.07;3.20;;;12.40;99.90;;;;;;4971612;28;21620;-87
2023/03/12 09:49:50;;;;;;;10.52;3.30;;;12.50;99.90;;;;;;4997332;28;20141;-84
2023/03/12 09:52:49;;;;;;;11.82;3.38;;;12.70;99.90;;;;;;4995417;28;20558;-85
2023/03/12 09:55:20;;;;;;;7.77;2.23;;;12.80;99.90;;;;;;4970758;28;20495;-85
2023/03/12 09:57:50;;;;;;;8.70;2.30;;;12.90;99.90;;;;;;4968639;28;20399;-88
2023/03/12 10:00:20;;;;;;;10.82;2.78;;;13.00;99.90;;;;;;5005393;28;20200;-87
2023/03/12 10:02:58;;;;;;;8.48;2.40;;;13.10;99.90;;;;;;4956670;28;20037;-86
2023/03/12 10:05:49;;;;;;;7.35;2.25;;;13.30;99.90;;;;;;4994484;28;20037;-85
2023/03/12 10:08:32;;;;;;;10.83;2.77;;;13.40;99.90;;;;;;4983184;28;20029;-89
2023/03/12 10:11:12;;;;;;;7.30;2.17;;;13.60;99.90;;;;;;4970733;28;20109;-85
2023/03/12 10:13:47;;;;;;;8.90;2.20;;;13.70;99.90;;;;;;4995823;28;20026;-87
2023/03/12 10:16:39;;;;;;;8.07;2.10;;;13.80;99.90;;;;;;4988128;28;20121;-85
2023/03/12 10:19:20;;;;;;;9.98;2.20;;;13.90;99.90;;;;;;4970627;28;20125;-86
2023/03/12 10:21:58;;;;;;;8.43;2.00;;;14.00;99.90;;;;;;5014640;28;20032;-85
2023/03/12 10:24:44;;;;;;;8.95;2.47;;;14.20;99.90;;;;;;4988283;28;20029;-85
2023/03/12 10:27:15;;;;;;;9.90;2.20;;;14.30;99.90;;;;;;4973172;28;21284;-84
2023/03/12 10:29:45;;;;;;;8.73;2.35;;;14.40;99.90;;;;;;4986213;28;20524;-86
2023/03/12 10:32:10;;;;;;;11.65;2.28;;;14.40;99.90;;;;;;4994050;28;20357;-84
2023/03/12 10:34:43;;;;;;;10.43;2.10;;;14.50;99.90;;;;;;4979035;28;20533;-86
2023/03/12 10:37:21;;;;;;;12.52;2.45;;;14.50;99.90;;;;;;4996040;28;20034;-84
2023/03/12 10:39:48;;;;;;;12.73;2.80;;;14.60;99.90;;;;;;4969505;28;20239;-87
2023/03/12 10:42:20;;;;;;;8.57;2.10;;;14.60;99.90;;;;;;5025608;28;20022;-87
2023/03/12 10:44:57;;;;;;;10.30;2.25;;;14.70;99.90;;;;;;4964803;28;23258;-87
2023/03/12 10:47:36;;;;;;;9.00;2.22;;;14.70;99.90;;;;;;4999234;28;20037;-87
2023/03/12 10:50:22;;;;;;;13.55;2.45;;;14.70;99.90;;;;;;4970719;28;20420;-85
2023/03/12 10:52:49;;;;;;;10.43;2.40;;;14.80;99.90;;;;;;5003303;28;20674;-83
2023/03/12 10:55:20;;;;;;;8.50;2.27;;;14.90;99.90;;;;;;4985395;28;20084;-85
2023/03/12 10:57:46;;;;;;;10.32;2.70;;;15.00;99.90;;;;;;4983956;28;20556;-88
2023/03/12 11:00:19;;;;;;;11.55;2.03;;;15.10;99.90;;;;;;4985842;28;20048;-86
2023/03/12 11:02:53;;;;;;;13.60;2.47;;;15.10;99.90;;;;;;4994224;28;20026;-84
2023/03/12 11:05:50;;;;;;;10.50;2.60;;;15.30;99.90;;;;;;4980026;28;20033;-85
2023/03/12 11:08:28;;;;;;;9.13;2.20;;;15.30;99.90;;;;;;4988544;28;20048;-87
2023/03/12 11:10:54;;;;;;;9.50;2.28;;;15.40;99.90;;;;;;4970201;28;20022;-87
2023/03/12 11:13:36;;;;;;;10.63;2.70;;;15.40;99.90;;;;;;4984309;28;20104;-86
2023/03/12 11:16:24;;;;;;;10.93;2.80;;;15.50;99.90;;;;;;4996547;28;20076;-83
2023/03/12 11:19:02;;;;;;;12.02;2.53;;;15.50;99.90;;;;;;4991839;28;20371;-86
2023/03/12 11:21:30;;;;;;;11.13;2.23;;;15.50;99.90;;;;;;4963865;28;20060;-85
2023/03/12 11:23:55;;;;;;;9.50;2.45;;;15.50;99.90;;;;;;4977154;28;20032;-84
2023/03/12 11:26:23;;;;;;;12.50;2.53;;;15.50;99.90;;;;;;4983866;28;20049;-84
2023/03/12 11:28:55;;;;;;;9.90;2.30;;;15.50;99.90;;;;;;4988699;28;20557;-82
2023/03/12 11:31:32;;;;;;;14.30;2.35;;;15.40;99.90;;;;;;4992883;28;20048;-87
2023/03/12 11:34:04;;;;;;;9.88;2.03;;;15.40;99.90;;;;;;4975508;28;20232;-84
2023/03/12 11:36:38;;;;;;;11.18;2.22;;;15.30;99.90;;;;;;4951821;28;20224;-86
2023/03/12 11:39:13;;;;;;;9.30;2.13;;;15.30;99.90;;;;;;5011889;28;20068;-82
2023/03/12 11:42:11;;;;;;;8.43;1.93;;;15.20;99.90;;;;;;4966515;28;20053;-85
2023/03/12 11:44:41;;;;;;;9.38;2.17;;;15.10;99.90;;;;;;4984387;28;20038;-84
2023/03/12 11:47:25;;;;;;;13.13;2.28;;;15.10;99.90;;;;;;5011320;28;20025;-85
2023/03/12 11:50:02;;;;;;;13.63;2.40;;;15.10;99.90;;;;;;4978278;28;20129;-84
2023/03/12 11:53:25;;;;;;;11.43;2.25;;;15.10;99.90;;;;;;4985068;28;20126;-83
2023/03/12 11:56:32;;;;;;;9.33;2.03;;;15.20;99.90;;;;;;4908633;28;20416;-87
2023/03/12 11:59:03;;;;;;;9.80;2.10;;;15.40;99.90;;;;;;4850816;29;20702;-83
2023/03/12 12:02:13;;;;;;;14.57;2.42;;;15.50;99.90;;;;;;4934876;28;20110;-83
2023/03/12 12:04:51;;;;;;;13.52;2.28;;;15.50;99.90;;;;;;4969516;28;20029;-85
2023/03/12 12:07:22;;;;;;;10.77;2.28;;;15.60;99.90;;;;;;4952131;28;20301;-83
2023/03/12 12:10:07;;;;;;;14.43;2.33;;;15.50;99.90;;;;;;5006486;28;20407;-87
2023/03/12 12:12:39;;;;;;;14.25;2.30;;;15.50;99.90;;;;;;4991548;28;20175;-85
2023/03/12 12:15:36;;;;;;;10.30;1.83;;;15.50;99.90;;;;;;4979323;28;20692;-83
2023/03/12 12:18:25;;;;;;;10.15;2.13;;;15.50;99.90;;;;;;4985069;28;20064;-86
2023/03/12 12:21:16;;;;;;;9.95;2.00;;;15.60;99.90;;;;;;4967178;28;20038;-84
2023/03/12 12:24:17;;;;;;;10.87;2.07;;;15.60;99.90;;;;;;4967450;28;20091;-86
2023/03/12 12:27:20;;;;;;;12.52;2.67;;;15.60;99.90;;;;;;4977986;28;20052;-86
2023/03/12 12:30:20;;;;;;;12.43;2.42;;;15.50;99.90;;;;;;4977030;28;20550;-87
2023/03/12 12:33:14;;;;;;;14.88;2.33;;;15.50;99.90;;;;;;4974237;28;20659;-86
2023/03/12 12:35:42;;;;;;;11.98;2.70;;;15.40;99.90;;;;;;4991327;28;20030;-84
2023/03/12 12:38:34;;;;;;;14.13;2.63;;;15.50;99.90;;;;;;4969229;28;20262;-85
2023/03/12 12:41:14;;;;;;;14.25;2.03;;;15.50;99.90;;;;;;5006494;28;20179;-85
2023/03/12 12:43:46;;;;;;;15.32;3.10;;;15.50;99.90;;;;;;4981458;28;20321;-88
2023/03/12 12:46:15;;;;;;;13.15;2.47;;;15.50;99.90;;;;;;4986018;28;20156;-86
2023/03/12 12:48:53;;;;;;;15.77;2.53;;;15.50;99.90;;;;;;4972959;28;20378;-87
2023/03/12 12:51:24;;;;;;;13.33;2.60;;;15.50;99.90;;;;;;5025114;28;20471;-85
2023/03/12 12:54:01;;;;;;;15.20;2.67;;;15.40;99.90;;;;;;4967691;28;20042;-87
2023/03/12 12:56:32;;;;;;;10.00;2.45;;;15.40;99.90;;;;;;4975997;28;20091;-83
2023/03/12 12:59:23;;;;;;;17.85;2.65;;;15.40;99.90;;;;;;4982718;28;20133;-85
2023/03/12 13:01:54;;;;;;;12.60;2.47;;;15.40;99.90;;;;;;4968658;28;20041;-87
2023/03/12 13:04:30;;;;;;;9.80;2.10;;;15.40;99.90;;;;;;4971170;28;20030;-88
2023/03/12 13:06:59;;;;;;;11.98;2.20;;;15.50;99.90;;;;;;4986091;28;20108;-83